createdAt,value
2019-04-01T00:02:16.726Z,8.98
2019-04-01T00:04:45.928Z,7.47
2019-04-01T00:07:15.124Z,7.87
2019-04-01T00:09:44.382Z,7.15
2019-04-01T00:12:13.681Z,6.65
2019-04-01T00:14:42.938Z,8.65
2019-04-01T00:17:12.125Z,8.50
2019-04-01T00:19:41.374Z,7.40
2019-04-01T00:22:10.612Z,6.08
2019-04-01T00:24:39.840Z,5.47
2019-04-01T00:27:09.050Z,5.05
2019-04-01T00:29:38.341Z,3.47
2019-04-01T00:32:07.524Z,5.03
2019-04-01T00:34:36.713Z,5.30
2019-04-01T00:37:05.966Z,5.08
2019-04-01T00:39:35.199Z,3.95
2019-04-01T00:42:06.015Z,4.15
2019-04-01T00:44:35.259Z,3.75
2019-04-01T00:47:04.571Z,3.60
2019-04-01T00:49:33.800Z,3.17
2019-04-01T00:52:03.047Z,2.87
2019-04-01T00:54:32.291Z,2.60
2019-04-01T00:57:01.644Z,2.50
2019-04-01T00:59:30.853Z,2.80
2019-04-01T01:02:00.148Z,2.50
2019-04-01T01:04:29.350Z,2.15
2019-04-01T01:06:58.571Z,2.47
2019-04-01T01:09:27.770Z,2.95
2019-04-01T01:11:57.029Z,3.30
2019-04-01T01:14:26.264Z,3.15
2019-04-01T01:16:55.433Z,3.20
2019-04-01T01:19:24.614Z,3.67
2019-04-01T01:21:53.898Z,3.30
2019-04-01T01:24:23.151Z,3.25
2019-04-01T01:26:52.414Z,3.80
2019-04-01T01:29:21.770Z,3.75
2019-04-01T01:31:51.036Z,3.60
2019-04-01T01:34:20.220Z,2.87
2019-04-01T01:36:49.443Z,2.20
2019-04-01T01:39:18.688Z,3.35
2019-04-01T01:41:47.919Z,2.77
2019-04-01T01:44:17.136Z,2.47
2019-04-01T01:46:46.410Z,2.83
2019-04-01T01:49:15.569Z,3.10
2019-04-01T01:51:44.778Z,3.10
2019-04-01T01:54:14.081Z,2.70
2019-04-01T01:56:43.294Z,2.80
2019-04-01T01:59:12.567Z,3.98
2019-04-01T02:01:41.810Z,2.98
2019-04-01T02:04:11.010Z,4.42
2019-04-01T02:06:40.299Z,8.28
2019-04-01T02:09:09.503Z,4.35
2019-04-01T02:11:38.791Z,5.22
2019-04-01T02:14:08.025Z,4.17
2019-04-01T02:16:37.279Z,4.75
2019-04-01T02:19:06.521Z,7.12
2019-04-01T02:21:35.733Z,5.78
2019-04-01T02:24:05.039Z,5.80
2019-04-01T02:26:34.235Z,5.97
2019-04-01T02:29:03.490Z,9.38
2019-04-01T02:31:32.795Z,9.33
2019-04-01T02:34:02.060Z,9.28
2019-04-01T02:36:31.259Z,8.25
2019-04-01T02:39:00.520Z,5.50
2019-04-01T02:41:29.706Z,4.85
2019-04-01T02:43:58.907Z,4.47
2019-04-01T02:46:28.339Z,4.78
2019-04-01T02:48:57.628Z,6.00
2019-04-01T02:51:27.384Z,5.83
2019-04-01T02:53:56.611Z,7.55
2019-04-01T02:56:27.017Z,8.08
2019-04-01T02:58:56.205Z,7.60
2019-04-01T03:01:25.515Z,7.53
2019-04-01T03:03:54.698Z,8.60
2019-04-01T03:06:23.917Z,11.38
2019-04-01T03:08:53.141Z,8.30
2019-04-01T03:11:22.399Z,7.47
2019-04-01T03:13:51.605Z,6.90
2019-04-01T03:16:20.880Z,8.05
2019-04-01T03:18:50.323Z,10.90
2019-04-01T03:21:19.639Z,8.90
2019-04-01T03:23:48.821Z,8.95
2019-04-01T03:26:18.050Z,7.80
2019-04-01T03:28:47.295Z,8.55
2019-04-01T03:31:16.475Z,7.50
2019-04-01T03:33:45.783Z,8.18
2019-04-01T03:36:15.009Z,7.75
2019-04-01T03:38:44.218Z,7.47
2019-04-01T03:41:13.560Z,8.95
2019-04-01T03:43:42.815Z,8.23
2019-04-01T03:46:12.041Z,7.03
2019-04-01T03:48:41.425Z,8.05
2019-04-01T03:51:10.623Z,7.50
2019-04-01T03:53:39.882Z,7.05
2019-04-01T03:56:09.088Z,5.33
2019-04-01T03:58:38.321Z,7.10
2019-04-01T04:01:07.569Z,7.95
2019-04-01T04:03:36.764Z,7.75
2019-04-01T04:06:06.067Z,8.18
2019-04-01T04:08:35.311Z,9.05
2019-04-01T04:11:04.755Z,8.65
2019-04-01T04:13:34.076Z,9.55
2019-04-01T04:16:03.673Z,9.00
2019-04-01T04:18:32.898Z,8.78
2019-04-01T04:21:02.057Z,8.55
2019-04-01T04:23:31.297Z,10.58
2019-04-01T04:26:00.641Z,11.12
2019-04-01T04:28:29.828Z,19.27
2019-04-01T04:30:59.112Z,13.70
2019-04-01T04:33:28.307Z,14.38
2019-04-01T04:35:57.506Z,12.13
2019-04-01T04:38:26.739Z,13.28
2019-04-01T04:40:55.962Z,13.72
2019-04-01T04:43:25.218Z,13.10
2019-04-01T04:45:54.742Z,13.05
2019-04-01T04:48:24.190Z,12.03
2019-04-01T04:50:53.429Z,13.00
2019-04-01T04:53:22.647Z,13.93
2019-04-01T04:55:51.862Z,14.45
2019-04-01T04:58:21.138Z,14.07
2019-04-01T05:00:50.451Z,15.98
2019-04-01T05:03:19.861Z,15.13
2019-04-01T05:05:49.248Z,15.08
2019-04-01T05:08:18.588Z,12.35
2019-04-01T05:10:47.865Z,10.38
2019-04-01T05:13:17.237Z,8.68
2019-04-01T05:15:46.795Z,8.30
2019-04-01T05:18:16.176Z,7.90
2019-04-01T05:20:51.980Z,7.05
2019-04-01T05:23:21.353Z,5.87
2019-04-01T05:25:50.708Z,3.92
2019-04-01T05:28:20.010Z,3.87
2019-04-01T05:30:49.436Z,4.22
2019-04-01T05:33:19.233Z,3.55
2019-04-01T05:35:48.645Z,3.50
2019-04-01T05:38:17.968Z,9.00
2019-04-01T05:40:47.728Z,4.42
2019-04-01T05:43:17.074Z,3.70
2019-04-01T05:45:46.425Z,4.25
2019-04-01T05:48:17.299Z,4.35
2019-04-01T05:50:46.673Z,4.80
2019-04-01T05:53:15.981Z,4.80
2019-04-01T05:55:45.482Z,4.42
2019-04-01T05:58:14.811Z,6.20
2019-04-01T06:00:45.667Z,4.75
2019-04-01T06:03:15.016Z,4.70
2019-04-01T06:05:44.379Z,4.85
2019-04-01T06:08:13.632Z,4.30
2019-04-01T06:10:42.953Z,3.72
2019-04-01T06:13:12.253Z,4.30
2019-04-01T06:15:41.661Z,5.80
2019-04-01T06:18:11.067Z,3.70
2019-04-01T06:20:40.389Z,3.25
2019-04-01T06:23:09.664Z,3.70
2019-04-01T06:25:38.960Z,11.75
2019-04-01T06:28:08.365Z,7.60
2019-04-01T06:30:37.774Z,6.00
2019-04-01T06:33:07.191Z,4.72
2019-04-01T06:35:36.578Z,6.95
2019-04-01T06:38:05.975Z,7.97
2019-04-01T06:40:35.302Z,6.50
2019-04-01T06:43:04.547Z,6.10
2019-04-01T06:45:33.914Z,7.72
2019-04-01T06:48:03.128Z,4.80
2019-04-01T06:50:32.455Z,8.65
2019-04-01T06:53:01.873Z,10.15
2019-04-01T06:55:31.132Z,7.50
2019-04-01T06:58:00.581Z,4.30
2019-04-01T07:00:29.891Z,4.85
2019-04-01T07:02:59.219Z,6.92
2019-04-01T07:05:28.575Z,5.65
2019-04-01T07:07:57.898Z,4.85
2019-04-01T07:10:27.324Z,5.58
2019-04-01T07:12:56.514Z,5.33
2019-04-01T07:15:25.909Z,6.70
2019-04-01T07:17:55.279Z,5.83
2019-04-01T07:20:24.701Z,38.53
2019-04-01T07:22:54.030Z,456.17
2019-04-01T07:25:23.438Z,264.60
2019-04-01T07:27:52.720Z,24.43
2019-04-01T07:30:21.973Z,155.22
2019-04-01T07:32:51.397Z,102.32
2019-04-01T07:35:20.807Z,211.47
2019-04-01T07:37:50.536Z,85.25
2019-04-01T07:40:19.738Z,51.30
2019-04-01T07:42:49.069Z,91.30
2019-04-01T07:45:18.523Z,133.12
2019-04-01T07:47:51.406Z,21.20
2019-04-01T07:50:19.113Z,274.00
2019-04-01T07:52:48.436Z,142.95
2019-04-01T07:55:17.689Z,74.72
2019-04-01T07:57:47.199Z,14.98
2019-04-01T08:00:16.427Z,24.65
2019-04-01T08:02:48.827Z,51.92
2019-04-01T08:05:17.105Z,27.85
2019-04-01T08:07:46.485Z,86.08
2019-04-01T08:10:17.423Z,25.35
2019-04-01T08:12:46.694Z,72.30
2019-04-01T08:15:16.369Z,66.37
2019-04-01T08:17:45.760Z,42.43
2019-04-01T08:20:15.155Z,131.27
2019-04-01T08:22:44.490Z,4.12
2019-04-01T08:25:13.749Z,29.42
2019-04-01T08:27:43.165Z,40.35
2019-04-01T08:30:12.352Z,14.98
2019-04-01T08:32:41.647Z,14.75
2019-04-01T08:35:11.022Z,14.55
2019-04-01T08:37:40.831Z,7.95
2019-04-01T08:40:10.300Z,64.87
2019-04-01T08:42:39.708Z,58.05
2019-04-01T08:45:09.055Z,16.90
2019-04-01T08:47:38.481Z,9.78
2019-04-01T08:50:07.888Z,25.57
2019-04-01T08:52:37.129Z,24.67
2019-04-01T08:55:07.499Z,61.73
2019-04-01T08:57:36.685Z,14.38
2019-04-01T09:00:07.156Z,30.88
2019-04-01T09:02:36.408Z,4.87
2019-04-01T09:05:06.239Z,8.58
2019-04-01T09:07:35.656Z,21.85
2019-04-01T09:10:06.067Z,9.15
2019-04-01T09:12:35.496Z,2.30
2019-04-01T09:15:06.488Z,10.90
2019-04-01T09:17:35.696Z,2.77
2019-04-01T09:20:05.339Z,2.87
2019-04-01T09:22:34.605Z,13.68
2019-04-01T09:25:04.848Z,11.65
2019-04-01T09:27:34.139Z,30.90
2019-04-01T09:30:03.475Z,14.65
2019-04-01T09:32:32.795Z,26.97
2019-04-01T09:35:02.176Z,11.10
2019-04-01T09:37:31.444Z,2.37
2019-04-01T09:40:00.749Z,2.00
2019-04-01T09:42:30.091Z,2.42
2019-04-01T09:44:59.284Z,13.48
2019-04-01T09:47:28.546Z,4.47
2019-04-01T09:49:57.918Z,6.10
2019-04-01T09:52:27.250Z,1.90
2019-04-01T09:54:56.504Z,38.00
2019-04-01T09:57:25.833Z,10.40
2019-04-01T09:59:55.103Z,42.73
2019-04-01T10:02:31.830Z,11.70
2019-04-01T10:04:55.563Z,26.07
2019-04-01T10:07:25.042Z,50.85
2019-04-01T10:09:54.408Z,3.27
2019-04-01T10:12:23.731Z,15.28
2019-04-01T10:14:53.190Z,31.57
2019-04-01T10:17:22.452Z,10.45
2019-04-01T10:19:51.785Z,20.08
2019-04-01T10:22:21.227Z,5.55
2019-04-01T10:24:50.468Z,14.55
2019-04-01T10:27:20.059Z,2.20
2019-04-01T10:29:49.529Z,1.75
2019-04-01T10:32:18.837Z,4.62
2019-04-01T10:34:48.223Z,21.73
2019-04-01T10:37:17.587Z,7.87
2019-04-01T10:39:46.907Z,3.00
2019-04-01T10:42:16.342Z,2.85
2019-04-01T10:44:45.741Z,7.33
2019-04-01T10:47:15.029Z,9.95
2019-04-01T10:49:44.464Z,9.75
2019-04-01T10:52:13.829Z,15.20
2019-04-01T10:54:43.194Z,12.93
2019-04-01T10:57:12.684Z,4.53
2019-04-01T10:59:42.028Z,8.15
2019-04-01T11:02:11.329Z,3.15
2019-04-01T11:04:40.629Z,2.72
2019-04-01T11:07:10.074Z,2.17
2019-04-01T11:09:39.798Z,2.98
2019-04-01T11:12:09.121Z,3.15
2019-04-01T11:14:38.576Z,0.70
2019-04-01T11:17:08.316Z,1.50
2019-04-01T14:22:38.762Z,3.08
2019-04-01T14:25:08.005Z,7.47
2019-04-01T14:27:37.387Z,2.33
2019-04-01T14:30:10.155Z,4.37
2019-04-01T14:32:39.405Z,2.20
2019-04-01T14:35:08.676Z,3.77
2019-04-01T14:37:39.760Z,2.10
2019-04-01T14:40:09.479Z,3.20
2019-04-01T14:42:39.812Z,4.20
2019-04-01T14:45:09.879Z,2.95
2019-04-01T14:47:56.121Z,2.12
2019-04-01T14:50:10.064Z,1.05
2019-04-01T14:52:39.272Z,1.07
2019-04-01T14:55:09.331Z,1.35
2019-04-01T14:57:38.589Z,5.22
2019-04-01T15:00:10.505Z,1.70
2019-04-01T15:02:39.673Z,1.70
2019-04-01T15:05:10.543Z,1.10
2019-04-01T15:07:39.746Z,2.80
2019-04-01T15:10:08.993Z,1.00
2019-04-01T15:12:39.469Z,2.33
2019-04-01T15:15:08.842Z,4.08
2019-04-01T15:17:38.149Z,2.80
2019-04-01T15:20:07.858Z,2.58
2019-04-01T15:22:37.108Z,1.45
2019-04-01T15:25:07.122Z,7.45
2019-04-01T15:27:36.301Z,3.05
2019-04-01T15:30:08.886Z,2.25
2019-04-01T15:32:38.253Z,5.87
2019-04-01T15:35:07.965Z,2.02
2019-04-01T15:37:37.143Z,8.08
2019-04-01T15:40:09.612Z,4.83
2019-04-01T15:45:07.350Z,2.85
2019-04-01T15:47:38.348Z,2.87
2019-04-01T15:50:09.386Z,8.10
2019-04-01T15:52:38.557Z,12.50
2019-04-01T15:55:07.833Z,2.70
2019-04-01T15:57:37.083Z,4.67
2019-04-01T16:00:07.207Z,8.60
2019-04-01T16:02:36.422Z,4.03
2019-04-01T16:05:07.494Z,10.25
2019-04-01T16:07:36.656Z,3.67
2019-04-01T16:10:06.467Z,7.37
2019-04-01T16:12:35.669Z,3.60
2019-04-01T16:15:09.048Z,4.58
2019-04-01T16:17:38.450Z,3.15
2019-04-01T16:20:07.771Z,4.60
2019-04-01T16:22:36.955Z,8.03
2019-04-01T16:25:07.799Z,11.95
2019-04-01T16:27:37.033Z,5.08
2019-04-01T16:30:08.122Z,7.22
2019-04-01T16:32:37.357Z,3.17
2019-04-01T16:35:07.236Z,12.18
2019-04-01T16:37:36.481Z,12.60
2019-04-01T16:40:06.582Z,12.98
2019-04-01T16:42:35.791Z,15.68
2019-04-01T16:45:07.221Z,8.08
2019-04-01T16:47:36.404Z,9.35
2019-04-01T16:50:07.648Z,14.87
2019-04-01T16:52:36.823Z,17.87
2019-04-01T16:55:07.018Z,20.20
2019-04-01T16:57:36.529Z,19.40
2019-04-01T17:00:08.260Z,23.67
2019-04-01T17:02:38.928Z,24.00
2019-04-01T17:05:08.129Z,29.00
2019-04-01T17:07:37.307Z,31.27
2019-04-01T17:10:06.575Z,27.15
2019-04-01T17:12:35.851Z,28.50
2019-04-01T17:15:05.627Z,46.50
2019-04-01T17:17:34.818Z,44.48
2019-04-01T17:20:06.172Z,40.63
2019-04-01T17:22:35.420Z,44.10
2019-04-01T17:25:06.248Z,65.80
2019-04-01T17:27:35.513Z,61.88
2019-04-01T17:30:07.087Z,70.28
2019-04-01T17:32:36.268Z,95.30
2019-04-01T17:35:07.482Z,176.80
2019-04-01T17:37:37.984Z,98.22
2019-04-01T17:40:08.595Z,86.40
2019-04-01T17:42:39.345Z,83.42
2019-04-01T17:45:23.592Z,80.50
2019-04-01T17:47:52.840Z,77.37
2019-04-01T17:50:22.112Z,76.40
2019-04-01T17:52:51.278Z,73.50
2019-04-01T17:55:20.530Z,68.60
2019-04-01T17:57:49.703Z,76.62
2019-04-01T18:00:26.396Z,59.33
2019-04-01T18:02:55.668Z,56.80
2019-04-01T18:05:24.852Z,61.25
2019-04-01T18:07:54.158Z,71.25
2019-04-01T18:10:23.404Z,59.30
2019-04-01T18:12:52.592Z,76.45
2019-04-01T18:15:21.870Z,59.13
2019-04-01T18:17:51.069Z,76.02
2019-04-01T18:20:20.560Z,73.97
2019-04-01T18:22:49.729Z,72.62
2019-04-01T18:25:19.088Z,85.03
2019-04-01T18:27:48.280Z,78.07
2019-04-01T18:30:17.522Z,77.08
2019-04-01T18:32:46.716Z,77.72
2019-04-01T18:35:15.986Z,74.27
2019-04-01T18:37:45.178Z,56.48
2019-04-01T18:40:14.352Z,59.30
2019-04-01T18:42:43.583Z,65.25
2019-04-01T18:45:12.836Z,73.22
2019-04-01T18:47:42.027Z,70.95
2019-04-01T18:50:11.331Z,67.95
2019-04-01T18:52:40.515Z,61.10
2019-04-01T18:55:09.776Z,52.17
2019-04-01T18:57:39.005Z,51.58
2019-04-01T19:00:10.455Z,43.50
2019-04-01T19:02:39.703Z,35.20
2019-04-01T19:05:09.978Z,46.70
2019-04-01T19:07:39.389Z,46.63
2019-04-01T19:10:08.569Z,52.88
2019-04-01T19:12:37.790Z,49.35
2019-04-01T19:15:09.869Z,51.42
2019-04-01T19:17:38.647Z,44.90
2019-04-01T19:20:08.500Z,116.73
2019-04-01T19:22:37.971Z,105.00
2019-04-01T19:25:07.632Z,96.70
2019-04-01T19:27:36.977Z,151.22
2019-04-01T19:30:06.817Z,132.37
2019-04-01T19:32:36.062Z,160.63
2019-04-01T19:35:09.318Z,137.20
2019-04-01T19:37:37.574Z,113.05
2019-04-01T19:40:07.268Z,68.35
2019-04-01T19:42:39.260Z,54.00
2019-04-01T19:45:07.711Z,62.58
2019-04-01T19:47:36.983Z,71.72
2019-04-01T19:50:07.785Z,74.27
2019-04-01T19:52:37.455Z,62.83
2019-04-01T19:55:06.648Z,103.30
2019-04-01T19:57:35.902Z,154.10
2019-04-01T20:00:08.542Z,79.32
2019-04-01T20:02:37.735Z,74.20
2019-04-01T20:05:07.764Z,61.85
2019-04-01T20:07:37.033Z,92.33
2019-04-01T20:10:06.287Z,69.15
2019-04-01T20:12:35.595Z,89.75
2019-04-01T20:15:09.587Z,74.58
2019-04-01T20:17:39.399Z,111.45
2019-04-01T20:20:08.783Z,53.63
2019-04-01T20:22:38.103Z,49.50
2019-04-01T20:25:08.001Z,64.00
2019-04-01T20:27:37.293Z,94.72
2019-04-01T20:30:09.746Z,56.50
2019-04-01T20:32:39.084Z,60.80
2019-04-01T20:35:08.324Z,55.25
2019-04-01T20:37:37.587Z,50.25
2019-04-01T20:40:07.546Z,47.48
2019-04-01T20:42:36.779Z,47.43
2019-04-01T20:45:10.585Z,48.98
2019-04-01T20:50:11.170Z,58.98
2019-04-01T20:52:40.344Z,49.27
2019-04-01T20:55:09.600Z,45.92
2019-04-01T20:57:38.828Z,43.25
2019-04-01T21:00:09.583Z,43.52
2019-04-01T21:02:39.223Z,44.10
2019-04-01T21:05:08.530Z,45.90
2019-04-01T21:07:37.692Z,50.15
2019-04-01T21:10:09.630Z,69.60
2019-04-01T21:12:38.828Z,74.87
2019-04-01T21:15:08.580Z,43.73
2019-04-01T21:17:37.759Z,40.00
2019-04-01T21:20:07.489Z,43.48
2019-04-01T21:22:37.405Z,39.53
2019-04-01T21:25:09.856Z,44.83
2019-04-01T21:27:39.108Z,37.83
2019-04-01T21:30:11.446Z,39.85
2019-04-01T21:32:40.769Z,38.15
2019-04-01T21:35:10.027Z,30.75
2019-04-01T21:37:39.348Z,29.67
2019-04-01T21:40:08.538Z,33.83
2019-04-01T21:42:37.832Z,32.08
2019-04-01T21:45:07.509Z,38.25
2019-04-01T21:47:36.911Z,20.12
2019-04-01T21:50:06.892Z,35.00
2019-04-01T21:52:36.411Z,37.25
2019-04-01T21:55:08.069Z,35.35
2019-04-01T21:57:37.290Z,41.70
2019-04-01T22:00:10.914Z,23.52
2019-04-01T22:02:40.161Z,20.88
2019-04-01T22:05:10.324Z,32.20
2019-04-01T22:07:40.203Z,40.70
2019-04-01T22:10:11.138Z,22.25
2019-04-01T22:12:40.416Z,40.35
2019-04-01T22:15:09.662Z,28.62
2019-04-01T22:17:39.019Z,40.20
2019-04-01T22:20:09.413Z,43.45
2019-04-01T22:22:39.453Z,41.80
2019-04-01T22:25:08.772Z,40.00
2019-04-01T22:27:38.047Z,38.10
2019-04-01T22:30:07.870Z,28.30
2019-04-01T22:32:37.319Z,40.98
2019-04-01T22:35:08.601Z,45.12
2019-04-01T22:37:38.139Z,42.93
2019-04-01T22:40:07.374Z,45.52
2019-04-01T22:42:37.175Z,48.83
2019-04-01T22:45:07.236Z,45.50
2019-04-01T22:47:36.479Z,43.78
2019-04-01T22:50:10.122Z,33.42
2019-04-01T22:52:42.074Z,41.20
2019-04-01T22:55:10.325Z,39.50
2019-04-01T22:57:39.544Z,40.38
2019-04-01T23:00:08.857Z,27.95
2019-04-01T23:02:38.107Z,35.13
2019-04-01T23:05:08.759Z,17.67
2019-04-01T23:07:38.273Z,17.92
2019-04-01T23:10:07.734Z,29.98
2019-04-01T23:12:36.905Z,28.92
2019-04-01T23:15:07.527Z,24.35
2019-04-01T23:17:38.302Z,14.95
2019-04-01T23:20:07.744Z,23.10
2019-04-01T23:22:36.920Z,19.92
2019-04-01T23:25:06.460Z,28.15
2019-04-01T23:27:35.640Z,29.07
2019-04-01T23:30:07.818Z,22.90
2019-04-01T23:32:37.146Z,16.52
2019-04-01T23:35:06.956Z,24.43
2019-04-01T23:37:38.102Z,19.48
2019-04-01T23:40:07.265Z,25.62
2019-04-01T23:42:37.914Z,27.05
2019-04-01T23:45:07.736Z,28.55
2019-04-01T23:47:37.104Z,26.85
2019-04-01T23:50:09.140Z,26.17
2019-04-01T23:52:38.838Z,26.20
2019-04-01T23:55:08.624Z,29.57
2019-04-01T23:57:37.801Z,17.37
